sensor_id;sensor_type;location;lat;lon;timestamp;P1;durP1;ratioP1;P2;durP2;ratioP2
51190;SDS011;37253;48.736;9.294;2023-08-24T00:01:40;8.35;;;2.67;;
51190;SDS011;37253;48.736;9.294;2023-08-24T00:03:40;3.28;;;2.42;;
51190;SDS011;37253;48.736;9.294;2023-08-24T00:05:41;5.03;;;2.80;;
51190;SDS011;37253;48.736;9.294;2023-08-24T00:07:42;5.25;;;2.47;;
51190;SDS011;37253;48.736;9.294;2023-08-24T00:09:42;7.28;;;2.75;;
51190;SDS011;37253;48.736;9.294;2023-08-24T00:11:43;6.22;;;2.80;;
51190;SDS011;37253;48.736;9.294;2023-08-24T00:13:43;5.75;;;2.80;;
51190;SDS011;37253;48.736;9.294;2023-08-24T00:15:48;4.93;;;2.70;;
51190;SDS011;37253;48.736;9.294;2023-08-24T00:17:49;6.00;;;2.45;;
51190;SDS011;37253;48.736;9.294;2023-08-24T00:19:49;3.47;;;2.75;;
51190;SDS011;37253;48.736;9.294;2023-08-24T00:21:50;4.32;;;2.70;;
51190;SDS011;37253;48.736;9.294;2023-08-24T00:23:50;5.45;;;2.83;;
51190;SDS011;37253;48.736;9.294;2023-08-24T00:25:50;5.47;;;2.65;;
51190;SDS011;37253;48.736;9.294;2023-08-24T00:27:54;2.97;;;2.38;;
51190;SDS011;37253;48.736;9.294;2023-08-24T00:29:54;4.10;;;2.80;;
51190;SDS011;37253;48.736;9.294;2023-08-24T00:31:54;5.95;;;2.60;;
51190;SDS011;37253;48.736;9.294;2023-08-24T00:33:55;7.43;;;2.58;;
51190;SDS011;37253;48.736;9.294;2023-08-24T00:35:59;4.07;;;2.67;;
51190;SDS011;37253;48.736;9.294;2023-08-24T00:38:00;6.93;;;2.65;;
51190;SDS011;37253;48.736;9.294;2023-08-24T00:40:01;5.05;;;2.70;;
51190;SDS011;37253;48.736;9.294;2023-08-24T00:42:08;6.07;;;2.45;;
51190;SDS011;37253;48.736;9.294;2023-08-24T00:44:14;4.90;;;2.42;;
51190;SDS011;37253;48.736;9.294;2023-08-24T00:46:14;5.97;;;2.83;;
51190;SDS011;37253;48.736;9.294;2023-08-24T00:48:15;3.33;;;2.35;;
51190;SDS011;37253;48.736;9.294;2023-08-24T00:50:16;3.58;;;2.35;;
51190;SDS011;37253;48.736;9.294;2023-08-24T00:52:16;4.75;;;2.63;;
51190;SDS011;37253;48.736;9.294;2023-08-24T00:54:17;5.07;;;2.35;;
51190;SDS011;37253;48.736;9.294;2023-08-24T00:56:17;4.05;;;2.80;;
51190;SDS011;37253;48.736;9.294;2023-08-24T00:58:20;3.33;;;2.53;;
51190;SDS011;37253;48.736;9.294;2023-08-24T01:00:21;3.65;;;2.45;;
51190;SDS011;37253;48.736;9.294;2023-08-24T01:02:22;6.32;;;2.60;;
51190;SDS011;37253;48.736;9.294;2023-08-24T01:04:22;6.13;;;2.50;;
51190;SDS011;37253;48.736;9.294;2023-08-24T01:06:23;3.38;;;2.53;;
51190;SDS011;37253;48.736;9.294;2023-08-24T01:08:23;5.50;;;2.90;;
51190;SDS011;37253;48.736;9.294;2023-08-24T01:10:24;4.45;;;2.33;;
51190;SDS011;37253;48.736;9.294;2023-08-24T01:17:04;4.75;;;2.70;;
51190;SDS011;37253;48.736;9.294;2023-08-24T01:19:06;3.17;;;2.55;;
51190;SDS011;37253;48.736;9.294;2023-08-24T01:21:07;5.63;;;2.90;;
51190;SDS011;37253;48.736;9.294;2023-08-24T01:27:41;3.08;;;2.75;;
51190;SDS011;37253;48.736;9.294;2023-08-24T01:29:42;8.88;;;3.13;;
51190;SDS011;37253;48.736;9.294;2023-08-24T01:31:42;4.30;;;2.60;;
51190;SDS011;37253;48.736;9.294;2023-08-24T01:33:43;6.03;;;2.85;;
51190;SDS011;37253;48.736;9.294;2023-08-24T01:35:44;5.13;;;2.85;;
51190;SDS011;37253;48.736;9.294;2023-08-24T01:37:45;8.05;;;3.25;;
51190;SDS011;37253;48.736;9.294;2023-08-24T01:40:04;3.92;;;2.70;;
51190;SDS011;37253;48.736;9.294;2023-08-24T01:42:13;4.78;;;2.53;;
51190;SDS011;37253;48.736;9.294;2023-08-24T01:44:18;6.78;;;2.92;;
51190;SDS011;37253;48.736;9.294;2023-08-24T01:46:21;4.57;;;2.53;;
51190;SDS011;37253;48.736;9.294;2023-08-24T01:48:22;6.10;;;2.50;;
51190;SDS011;37253;48.736;9.294;2023-08-24T01:50:22;8.52;;;3.20;;
51190;SDS011;37253;48.736;9.294;2023-08-24T01:52:23;2.60;;;2.40;;
51190;SDS011;37253;48.736;9.294;2023-08-24T01:54:24;5.65;;;3.03;;
51190;SDS011;37253;48.736;9.294;2023-08-24T01:56:24;3.10;;;2.75;;
51190;SDS011;37253;48.736;9.294;2023-08-24T01:58:24;3.00;;;2.70;;
51190;SDS011;37253;48.736;9.294;2023-08-24T02:00:25;4.55;;;2.45;;
51190;SDS011;37253;48.736;9.294;2023-08-24T02:02:25;5.32;;;2.75;;
51190;SDS011;37253;48.736;9.294;2023-08-24T02:04:25;3.90;;;2.75;;
51190;SDS011;37253;48.736;9.294;2023-08-24T02:06:26;3.88;;;2.75;;
51190;SDS011;37253;48.736;9.294;2023-08-24T02:08:27;4.57;;;2.75;;
51190;SDS011;37253;48.736;9.294;2023-08-24T02:10:27;3.88;;;2.85;;
51190;SDS011;37253;48.736;9.294;2023-08-24T02:12:28;3.35;;;2.60;;
51190;SDS011;37253;48.736;9.294;2023-08-24T02:14:28;4.10;;;2.60;;
51190;SDS011;37253;48.736;9.294;2023-08-24T02:16:29;3.75;;;2.60;;
51190;SDS011;37253;48.736;9.294;2023-08-24T02:18:30;5.72;;;2.83;;
51190;SDS011;37253;48.736;9.294;2023-08-24T02:20:34;4.47;;;2.80;;
51190;SDS011;37253;48.736;9.294;2023-08-24T02:22:35;4.28;;;2.63;;
51190;SDS011;37253;48.736;9.294;2023-08-24T02:24:35;4.07;;;2.60;;
51190;SDS011;37253;48.736;9.294;2023-08-24T02:26:35;6.30;;;2.70;;
51190;SDS011;37253;48.736;9.294;2023-08-24T02:28:36;4.82;;;3.22;;
51190;SDS011;37253;48.736;9.294;2023-08-24T02:30:37;7.60;;;3.25;;
51190;SDS011;37253;48.736;9.294;2023-08-24T02:32:38;5.38;;;3.25;;
51190;SDS011;37253;48.736;9.294;2023-08-24T02:34:39;6.25;;;2.95;;
51190;SDS011;37253;48.736;9.294;2023-08-24T02:36:39;3.60;;;2.60;;
51190;SDS011;37253;48.736;9.294;2023-08-24T02:38:39;3.85;;;2.80;;
51190;SDS011;37253;48.736;9.294;2023-08-24T02:40:39;7.30;;;3.45;;
51190;SDS011;37253;48.736;9.294;2023-08-24T02:42:40;4.22;;;2.63;;
51190;SDS011;37253;48.736;9.294;2023-08-24T02:44:40;3.90;;;2.70;;
51190;SDS011;37253;48.736;9.294;2023-08-24T02:46:43;4.32;;;2.90;;
51190;SDS011;37253;48.736;9.294;2023-08-24T02:48:44;3.80;;;2.88;;
51190;SDS011;37253;48.736;9.294;2023-08-24T02:50:47;6.32;;;3.40;;
51190;SDS011;37253;48.736;9.294;2023-08-24T02:52:47;4.40;;;2.70;;
51190;SDS011;37253;48.736;9.294;2023-08-24T02:54:48;4.28;;;3.10;;
51190;SDS011;37253;48.736;9.294;2023-08-24T02:56:48;6.80;;;3.03;;
51190;SDS011;37253;48.736;9.294;2023-08-24T02:58:48;3.50;;;2.63;;
51190;SDS011;37253;48.736;9.294;2023-08-24T03:00:49;3.97;;;2.90;;
51190;SDS011;37253;48.736;9.294;2023-08-24T03:02:49;4.80;;;2.90;;
51190;SDS011;37253;48.736;9.294;2023-08-24T03:04:49;3.10;;;2.85;;
51190;SDS011;37253;48.736;9.294;2023-08-24T03:06:50;3.63;;;2.92;;
51190;SDS011;37253;48.736;9.294;2023-08-24T03:08:50;5.90;;;2.72;;
51190;SDS011;37253;48.736;9.294;2023-08-24T03:10:50;7.88;;;2.92;;
51190;SDS011;37253;48.736;9.294;2023-08-24T03:12:51;3.53;;;2.70;;
51190;SDS011;37253;48.736;9.294;2023-08-24T03:14:51;3.55;;;3.20;;
51190;SDS011;37253;48.736;9.294;2023-08-24T03:16:53;4.18;;;3.17;;
51190;SDS011;37253;48.736;9.294;2023-08-24T03:18:53;4.80;;;3.03;;
51190;SDS011;37253;48.736;9.294;2023-08-24T03:20:53;3.83;;;3.05;;
51190;SDS011;37253;48.736;9.294;2023-08-24T03:22:54;5.55;;;2.72;;
51190;SDS011;37253;48.736;9.294;2023-08-24T03:24:54;3.25;;;2.95;;
51190;SDS011;37253;48.736;9.294;2023-08-24T03:26:54;5.18;;;2.70;;
51190;SDS011;37253;48.736;9.294;2023-08-24T03:28:54;4.32;;;2.80;;
51190;SDS011;37253;48.736;9.294;2023-08-24T03:30:55;4.43;;;3.20;;
51190;SDS011;37253;48.736;9.294;2023-08-24T03:32:55;6.47;;;3.05;;
51190;SDS011;37253;48.736;9.294;2023-08-24T03:34:59;6.40;;;3.40;;
51190;SDS011;37253;48.736;9.294;2023-08-24T03:36:59;5.22;;;3.20;;
51190;SDS011;37253;48.736;9.294;2023-08-24T03:39:00;6.93;;;3.10;;
51190;SDS011;37253;48.736;9.294;2023-08-24T03:41:01;6.00;;;3.30;;
51190;SDS011;37253;48.736;9.294;2023-08-24T03:43:02;4.57;;;3.13;;
51190;SDS011;37253;48.736;9.294;2023-08-24T03:45:03;6.78;;;2.88;;
51190;SDS011;37253;48.736;9.294;2023-08-24T03:47:04;5.40;;;2.70;;
51190;SDS011;37253;48.736;9.294;2023-08-24T03:49:04;4.60;;;3.40;;
51190;SDS011;37253;48.736;9.294;2023-08-24T03:51:05;3.92;;;2.72;;
51190;SDS011;37253;48.736;9.294;2023-08-24T03:53:06;4.28;;;2.67;;
51190;SDS011;37253;48.736;9.294;2023-08-24T03:55:06;9.18;;;3.42;;
51190;SDS011;37253;48.736;9.294;2023-08-24T03:57:07;5.13;;;3.10;;
51190;SDS011;37253;48.736;9.294;2023-08-24T03:59:08;7.40;;;3.10;;
51190;SDS011;37253;48.736;9.294;2023-08-24T04:01:11;5.50;;;3.15;;
51190;SDS011;37253;48.736;9.294;2023-08-24T04:03:12;3.83;;;3.30;;
51190;SDS011;37253;48.736;9.294;2023-08-24T04:05:12;8.48;;;2.95;;
51190;SDS011;37253;48.736;9.294;2023-08-24T04:07:13;3.78;;;2.70;;
51190;SDS011;37253;48.736;9.294;2023-08-24T04:09:13;4.05;;;3.03;;
51190;SDS011;37253;48.736;9.294;2023-08-24T04:11:13;4.63;;;2.92;;
51190;SDS011;37253;48.736;9.294;2023-08-24T04:13:14;5.72;;;3.08;;
51190;SDS011;37253;48.736;9.294;2023-08-24T04:15:14;4.50;;;3.10;;
51190;SDS011;37253;48.736;9.294;2023-08-24T04:17:14;3.80;;;3.08;;
51190;SDS011;37253;48.736;9.294;2023-08-24T04:19:15;5.95;;;3.00;;
51190;SDS011;37253;48.736;9.294;2023-08-24T04:21:15;5.43;;;3.10;;
51190;SDS011;37253;48.736;9.294;2023-08-24T04:23:15;4.28;;;3.03;;
51190;SDS011;37253;48.736;9.294;2023-08-24T04:25:16;5.28;;;3.40;;
51190;SDS011;37253;48.736;9.294;2023-08-24T04:27:16;3.75;;;3.13;;
51190;SDS011;37253;48.736;9.294;2023-08-24T04:29:17;6.55;;;2.95;;
51190;SDS011;37253;48.736;9.294;2023-08-24T04:31:17;9.38;;;3.00;;
51190;SDS011;37253;48.736;9.294;2023-08-24T04:33:17;4.07;;;3.00;;
51190;SDS011;37253;48.736;9.294;2023-08-24T04:35:18;4.28;;;3.45;;
51190;SDS011;37253;48.736;9.294;2023-08-24T04:37:18;7.00;;;3.20;;
51190;SDS011;37253;48.736;9.294;2023-08-24T04:39:19;7.18;;;3.17;;
51190;SDS011;37253;48.736;9.294;2023-08-24T04:41:19;4.20;;;3.28;;
51190;SDS011;37253;48.736;9.294;2023-08-24T04:43:20;3.67;;;2.95;;
51190;SDS011;37253;48.736;9.294;2023-08-24T04:45:21;3.63;;;3.28;;
51190;SDS011;37253;48.736;9.294;2023-08-24T04:47:22;5.68;;;3.53;;
51190;SDS011;37253;48.736;9.294;2023-08-24T04:49:22;3.50;;;3.20;;
51190;SDS011;37253;48.736;9.294;2023-08-24T04:51:22;5.65;;;3.47;;
51190;SDS011;37253;48.736;9.294;2023-08-24T04:53:22;5.70;;;3.58;;
51190;SDS011;37253;48.736;9.294;2023-08-24T04:55:23;4.03;;;3.30;;
51190;SDS011;37253;48.736;9.294;2023-08-24T04:57:23;3.85;;;2.92;;
51190;SDS011;37253;48.736;9.294;2023-08-24T04:59:23;3.90;;;3.47;;
51190;SDS011;37253;48.736;9.294;2023-08-24T05:01:24;6.13;;;3.40;;
51190;SDS011;37253;48.736;9.294;2023-08-24T05:03:27;8.27;;;3.10;;
51190;SDS011;37253;48.736;9.294;2023-08-24T05:05:31;7.90;;;3.17;;
51190;SDS011;37253;48.736;9.294;2023-08-24T05:07:32;6.15;;;3.38;;
51190;SDS011;37253;48.736;9.294;2023-08-24T05:09:32;5.57;;;3.42;;
51190;SDS011;37253;48.736;9.294;2023-08-24T05:11:32;4.63;;;3.00;;
51190;SDS011;37253;48.736;9.294;2023-08-24T05:13:33;4.45;;;3.38;;
51190;SDS011;37253;48.736;9.294;2023-08-24T05:15:33;7.38;;;3.15;;
51190;SDS011;37253;48.736;9.294;2023-08-24T05:17:33;3.50;;;2.97;;
51190;SDS011;37253;48.736;9.294;2023-08-24T05:19:34;4.00;;;3.50;;
51190;SDS011;37253;48.736;9.294;2023-08-24T05:21:34;4.70;;;3.35;;
51190;SDS011;37253;48.736;9.294;2023-08-24T05:23:34;4.72;;;3.60;;
51190;SDS011;37253;48.736;9.294;2023-08-24T05:25:35;10.00;;;3.50;;
51190;SDS011;37253;48.736;9.294;2023-08-24T05:27:35;6.40;;;3.72;;
51190;SDS011;37253;48.736;9.294;2023-08-24T05:29:36;6.35;;;3.28;;
51190;SDS011;37253;48.736;9.294;2023-08-24T05:31:37;4.90;;;3.60;;
51190;SDS011;37253;48.736;9.294;2023-08-24T05:33:37;3.95;;;3.42;;
51190;SDS011;37253;48.736;9.294;2023-08-24T05:35:37;7.00;;;3.30;;
51190;SDS011;37253;48.736;9.294;2023-08-24T05:37:38;7.47;;;3.72;;
51190;SDS011;37253;48.736;9.294;2023-08-24T05:39:38;8.63;;;3.47;;
51190;SDS011;37253;48.736;9.294;2023-08-24T05:41:38;4.75;;;3.78;;
51190;SDS011;37253;48.736;9.294;2023-08-24T05:43:38;3.38;;;3.08;;
51190;SDS011;37253;48.736;9.294;2023-08-24T05:45:39;5.78;;;3.58;;
51190;SDS011;37253;48.736;9.294;2023-08-24T05:47:40;3.97;;;3.28;;
51190;SDS011;37253;48.736;9.294;2023-08-24T05:49:41;5.63;;;3.30;;
51190;SDS011;37253;48.736;9.294;2023-08-24T05:51:41;4.40;;;3.33;;
51190;SDS011;37253;48.736;9.294;2023-08-24T05:53:41;6.70;;;3.55;;
51190;SDS011;37253;48.736;9.294;2023-08-24T05:55:41;5.45;;;3.35;;
51190;SDS011;37253;48.736;9.294;2023-08-24T05:57:42;7.00;;;3.30;;
51190;SDS011;37253;48.736;9.294;2023-08-24T05:59:42;4.53;;;3.33;;
51190;SDS011;37253;48.736;9.294;2023-08-24T06:01:42;6.47;;;3.47;;
51190;SDS011;37253;48.736;9.294;2023-08-24T06:03:43;4.20;;;3.67;;
51190;SDS011;37253;48.736;9.294;2023-08-24T06:05:43;6.18;;;3.63;;
51190;SDS011;37253;48.736;9.294;2023-08-24T06:07:44;4.53;;;3.47;;
51190;SDS011;37253;48.736;9.294;2023-08-24T06:09:45;3.95;;;3.38;;
51190;SDS011;37253;48.736;9.294;2023-08-24T06:11:46;8.10;;;4.10;;
51190;SDS011;37253;48.736;9.294;2023-08-24T06:13:46;4.53;;;3.65;;
51190;SDS011;37253;48.736;9.294;2023-08-24T06:15:46;5.60;;;3.85;;
51190;SDS011;37253;48.736;9.294;2023-08-24T06:17:47;5.95;;;3.63;;
51190;SDS011;37253;48.736;9.294;2023-08-24T06:19:47;6.78;;;3.83;;
51190;SDS011;37253;48.736;9.294;2023-08-24T06:21:48;7.30;;;4.10;;
51190;SDS011;37253;48.736;9.294;2023-08-24T06:23:48;6.18;;;4.20;;
51190;SDS011;37253;48.736;9.294;2023-08-24T06:25:48;7.80;;;4.90;;
51190;SDS011;37253;48.736;9.294;2023-08-24T06:27:49;10.90;;;5.10;;
51190;SDS011;37253;48.736;9.294;2023-08-24T06:29:49;12.13;;;4.82;;
51190;SDS011;37253;48.736;9.294;2023-08-24T06:31:50;6.88;;;4.97;;
51190;SDS011;37253;48.736;9.294;2023-08-24T06:33:50;7.28;;;5.05;;
51190;SDS011;37253;48.736;9.294;2023-08-24T06:35:50;11.20;;;4.85;;
51190;SDS011;37253;48.736;9.294;2023-08-24T06:37:50;5.80;;;4.63;;
51190;SDS011;37253;48.736;9.294;2023-08-24T06:39:51;10.82;;;4.72;;
51190;SDS011;37253;48.736;9.294;2023-08-24T06:41:51;8.27;;;4.95;;
51190;SDS011;37253;48.736;9.294;2023-08-24T06:43:51;8.77;;;4.93;;
51190;SDS011;37253;48.736;9.294;2023-08-24T06:45:57;9.00;;;4.80;;
51190;SDS011;37253;48.736;9.294;2023-08-24T06:47:57;9.13;;;4.90;;
51190;SDS011;37253;48.736;9.294;2023-08-24T06:49:57;8.43;;;4.40;;
51190;SDS011;37253;48.736;9.294;2023-08-24T06:51:58;12.15;;;4.75;;
51190;SDS011;37253;48.736;9.294;2023-08-24T06:53:58;10.95;;;4.72;;
51190;SDS011;37253;48.736;9.294;2023-08-24T06:55:58;11.60;;;4.75;;
51190;SDS011;37253;48.736;9.294;2023-08-24T06:57:59;12.90;;;5.00;;
51190;SDS011;37253;48.736;9.294;2023-08-24T06:59:59;8.07;;;4.70;;
51190;SDS011;37253;48.736;9.294;2023-08-24T07:02:00;5.93;;;4.18;;
51190;SDS011;37253;48.736;9.294;2023-08-24T07:04:00;6.50;;;4.50;;
51190;SDS011;37253;48.736;9.294;2023-08-24T07:06:00;8.73;;;4.20;;
51190;SDS011;37253;48.736;9.294;2023-08-24T07:08:01;5.38;;;4.30;;
51190;SDS011;37253;48.736;9.294;2023-08-24T07:10:03;4.90;;;4.10;;
51190;SDS011;37253;48.736;9.294;2023-08-24T07:12:04;5.82;;;3.83;;
51190;SDS011;37253;48.736;9.294;2023-08-24T07:14:07;8.77;;;3.95;;
51190;SDS011;37253;48.736;9.294;2023-08-24T07:16:07;11.05;;;4.25;;
51190;SDS011;37253;48.736;9.294;2023-08-24T07:18:07;6.10;;;4.03;;
51190;SDS011;37253;48.736;9.294;2023-08-24T07:20:09;8.18;;;3.60;;
51190;SDS011;37253;48.736;9.294;2023-08-24T07:22:09;5.68;;;3.70;;
51190;SDS011;37253;48.736;9.294;2023-08-24T07:24:10;6.20;;;3.47;;
51190;SDS011;37253;48.736;9.294;2023-08-24T07:26:10;9.00;;;4.35;;
51190;SDS011;37253;48.736;9.294;2023-08-24T07:28:10;7.13;;;4.53;;
51190;SDS011;37253;48.736;9.294;2023-08-24T07:30:11;5.22;;;3.60;;
51190;SDS011;37253;48.736;9.294;2023-08-24T07:32:11;5.22;;;3.75;;
51190;SDS011;37253;48.736;9.294;2023-08-24T07:34:12;6.35;;;3.75;;
51190;SDS011;37253;48.736;9.294;2023-08-24T07:36:12;5.75;;;3.92;;
51190;SDS011;37253;48.736;9.294;2023-08-24T07:38:12;5.10;;;3.83;;
51190;SDS011;37253;48.736;9.294;2023-08-24T07:40:13;6.60;;;3.67;;
51190;SDS011;37253;48.736;9.294;2023-08-24T07:42:14;5.05;;;3.67;;
51190;SDS011;37253;48.736;9.294;2023-08-24T07:44:14;8.82;;;3.78;;
51190;SDS011;37253;48.736;9.294;2023-08-24T07:46:15;6.10;;;3.58;;
51190;SDS011;37253;48.736;9.294;2023-08-24T07:48:15;11.05;;;3.90;;
51190;SDS011;37253;48.736;9.294;2023-08-24T07:50:15;6.00;;;3.72;;
51190;SDS011;37253;48.736;9.294;2023-08-24T07:52:16;7.93;;;3.53;;
51190;SDS011;37253;48.736;9.294;2023-08-24T07:54:16;4.45;;;3.33;;
51190;SDS011;37253;48.736;9.294;2023-08-24T07:56:17;7.07;;;3.03;;
51190;SDS011;37253;48.736;9.294;2023-08-24T07:58:17;5.15;;;3.70;;
51190;SDS011;37253;48.736;9.294;2023-08-24T08:00:17;6.40;;;3.60;;
51190;SDS011;37253;48.736;9.294;2023-08-24T08:02:18;6.25;;;3.33;;
51190;SDS011;37253;48.736;9.294;2023-08-24T08:04:18;5.95;;;3.63;;
51190;SDS011;37253;48.736;9.294;2023-08-24T08:06:18;5.38;;;3.22;;
51190;SDS011;37253;48.736;9.294;2023-08-24T08:08:19;5.53;;;3.67;;
51190;SDS011;37253;48.736;9.294;2023-08-24T08:10:19;4.55;;;3.70;;
51190;SDS011;37253;48.736;9.294;2023-08-24T08:12:21;7.00;;;3.65;;
51190;SDS011;37253;48.736;9.294;2023-08-24T08:14:21;5.53;;;3.88;;
51190;SDS011;37253;48.736;9.294;2023-08-24T08:16:21;8.98;;;3.85;;
51190;SDS011;37253;48.736;9.294;2023-08-24T08:18:22;6.18;;;3.80;;
51190;SDS011;37253;48.736;9.294;2023-08-24T08:20:22;8.10;;;3.60;;
51190;SDS011;37253;48.736;9.294;2023-08-24T08:22:23;5.97;;;3.60;;
51190;SDS011;37253;48.736;9.294;2023-08-24T08:24:23;6.60;;;3.95;;
51190;SDS011;37253;48.736;9.294;2023-08-24T08:26:23;5.22;;;3.33;;
51190;SDS011;37253;48.736;9.294;2023-08-24T08:28:24;6.10;;;3.72;;
51190;SDS011;37253;48.736;9.294;2023-08-24T08:30:24;9.95;;;3.70;;
51190;SDS011;37253;48.736;9.294;2023-08-24T08:32:24;3.85;;;3.40;;
51190;SDS011;37253;48.736;9.294;2023-08-24T08:34:27;8.93;;;3.72;;
51190;SDS011;37253;48.736;9.294;2023-08-24T08:36:27;5.82;;;3.67;;
51190;SDS011;37253;48.736;9.294;2023-08-24T08:38:27;8.40;;;3.75;;
51190;SDS011;37253;48.736;9.294;2023-08-24T08:40:29;9.85;;;3.88;;
51190;SDS011;37253;48.736;9.294;2023-08-24T08:42:30;4.72;;;3.45;;
51190;SDS011;37253;48.736;9.294;2023-08-24T08:44:30;5.50;;;3.65;;
51190;SDS011;37253;48.736;9.294;2023-08-24T08:46:34;5.72;;;3.80;;
51190;SDS011;37253;48.736;9.294;2023-08-24T08:48:34;6.13;;;3.75;;
51190;SDS011;37253;48.736;9.294;2023-08-24T08:50:36;6.30;;;3.60;;
51190;SDS011;37253;48.736;9.294;2023-08-24T08:52:36;8.32;;;4.07;;
51190;SDS011;37253;48.736;9.294;2023-08-24T08:54:37;6.50;;;3.53;;
51190;SDS011;37253;48.736;9.294;2023-08-24T08:56:37;4.82;;;3.67;;
51190;SDS011;37253;48.736;9.294;2023-08-24T08:58:37;9.35;;;3.63;;
51190;SDS011;37253;48.736;9.294;2023-08-24T09:00:39;5.47;;;3.70;;
51190;SDS011;37253;48.736;9.294;2023-08-24T09:02:39;4.35;;;3.65;;
51190;SDS011;37253;48.736;9.294;2023-08-24T09:04:43;6.97;;;3.30;;
51190;SDS011;37253;48.736;9.294;2023-08-24T09:06:44;8.00;;;3.63;;
51190;SDS011;37253;48.736;9.294;2023-08-24T09:08:45;4.18;;;3.55;;
51190;SDS011;37253;48.736;9.294;2023-08-24T09:10:45;6.03;;;3.92;;
51190;SDS011;37253;48.736;9.294;2023-08-24T09:12:46;6.45;;;3.88;;
51190;SDS011;37253;48.736;9.294;2023-08-24T09:14:46;5.93;;;3.72;;
51190;SDS011;37253;48.736;9.294;2023-08-24T09:16:46;5.60;;;3.70;;
51190;SDS011;37253;48.736;9.294;2023-08-24T09:18:47;4.22;;;3.83;;
51190;SDS011;37253;48.736;9.294;2023-08-24T09:20:47;5.43;;;3.97;;
51190;SDS011;37253;48.736;9.294;2023-08-24T09:22:48;3.90;;;3.35;;
51190;SDS011;37253;48.736;9.294;2023-08-24T09:24:48;11.68;;;3.88;;
51190;SDS011;37253;48.736;9.294;2023-08-24T09:26:50;5.90;;;3.75;;
51190;SDS011;37253;48.736;9.294;2023-08-24T09:28:50;4.25;;;3.65;;
51190;SDS011;37253;48.736;9.294;2023-08-24T09:30:53;5.53;;;3.80;;
51190;SDS011;37253;48.736;9.294;2023-08-24T09:33:09;5.20;;;3.70;;
51190;SDS011;37253;48.736;9.294;2023-08-24T09:35:10;6.80;;;3.33;;
51190;SDS011;37253;48.736;9.294;2023-08-24T09:37:14;4.95;;;3.60;;
51190;SDS011;37253;48.736;9.294;2023-08-24T09:39:16;4.78;;;3.13;;
51190;SDS011;37253;48.736;9.294;2023-08-24T09:41:17;4.22;;;3.80;;
51190;SDS011;37253;48.736;9.294;2023-08-24T09:43:17;5.15;;;3.78;;
51190;SDS011;37253;48.736;9.294;2023-08-24T09:45:17;7.68;;;3.83;;
51190;SDS011;37253;48.736;9.294;2023-08-24T09:47:18;4.60;;;3.50;;
51190;SDS011;37253;48.736;9.294;2023-08-24T09:49:19;4.45;;;3.20;;
51190;SDS011;37253;48.736;9.294;2023-08-24T09:51:19;5.32;;;3.35;;
51190;SDS011;37253;48.736;9.294;2023-08-24T09:53:20;8.07;;;3.80;;
51190;SDS011;37253;48.736;9.294;2023-08-24T09:55:22;8.32;;;3.88;;
51190;SDS011;37253;48.736;9.294;2023-08-24T09:57:23;6.82;;;3.85;;
51190;SDS011;37253;48.736;9.294;2023-08-24T09:59:23;4.00;;;3.35;;
51190;SDS011;37253;48.736;9.294;2023-08-24T10:01:26;3.90;;;3.22;;
51190;SDS011;37253;48.736;9.294;2023-08-24T10:03:27;3.83;;;3.20;;
51190;SDS011;37253;48.736;9.294;2023-08-24T10:05:29;4.00;;;3.10;;
51190;SDS011;37253;48.736;9.294;2023-08-24T10:07:31;9.40;;;3.67;;
51190;SDS011;37253;48.736;9.294;2023-08-24T10:09:35;3.90;;;3.47;;
51190;SDS011;37253;48.736;9.294;2023-08-24T10:11:43;5.25;;;3.75;;
51190;SDS011;37253;48.736;9.294;2023-08-24T10:13:54;5.20;;;3.38;;
51190;SDS011;37253;48.736;9.294;2023-08-24T10:15:59;6.15;;;3.55;;
51190;SDS011;37253;48.736;9.294;2023-08-24T10:17:59;4.18;;;3.75;;
51190;SDS011;37253;48.736;9.294;2023-08-24T10:20:01;4.10;;;3.65;;
51190;SDS011;37253;48.736;9.294;2023-08-24T10:22:04;5.60;;;3.30;;
51190;SDS011;37253;48.736;9.294;2023-08-24T10:24:05;4.22;;;3.33;;
51190;SDS011;37253;48.736;9.294;2023-08-24T10:26:09;4.10;;;3.67;;
51190;SDS011;37253;48.736;9.294;2023-08-24T10:28:10;4.80;;;4.00;;
51190;SDS011;37253;48.736;9.294;2023-08-24T10:30:11;4.40;;;3.67;;
51190;SDS011;37253;48.736;9.294;2023-08-24T10:32:12;4.65;;;3.42;;
51190;SDS011;37253;48.736;9.294;2023-08-24T10:34:13;4.15;;;3.53;;
51190;SDS011;37253;48.736;9.294;2023-08-24T10:36:13;4.10;;;3.65;;
51190;SDS011;37253;48.736;9.294;2023-08-24T10:38:24;3.63;;;3.33;;
51190;SDS011;37253;48.736;9.294;2023-08-24T10:40:32;6.45;;;4.07;;
51190;SDS011;37253;48.736;9.294;2023-08-24T10:42:43;3.80;;;3.42;;
51190;SDS011;37253;48.736;9.294;2023-08-24T10:44:45;5.28;;;3.80;;
51190;SDS011;37253;48.736;9.294;2023-08-24T10:47:05;4.63;;;3.80;;
51190;SDS011;37253;48.736;9.294;2023-08-24T10:49:07;4.40;;;3.60;;
51190;SDS011;37253;48.736;9.294;2023-08-24T10:53:20;3.65;;;3.33;;
51190;SDS011;37253;48.736;9.294;2023-08-24T10:55:40;7.13;;;4.10;;
51190;SDS011;37253;48.736;9.294;2023-08-24T10:57:40;5.43;;;3.75;;
51190;SDS011;37253;48.736;9.294;2023-08-24T10:59:43;4.18;;;3.80;;
51190;SDS011;37253;48.736;9.294;2023-08-24T11:03:50;3.90;;;3.55;;
51190;SDS011;37253;48.736;9.294;2023-08-24T11:05:51;3.70;;;3.40;;
51190;SDS011;37253;48.736;9.294;2023-08-24T11:07:52;4.22;;;3.67;;
51190;SDS011;37253;48.736;9.294;2023-08-24T11:09:54;4.72;;;3.58;;
51190;SDS011;37253;48.736;9.294;2023-08-24T11:11:55;3.80;;;3.35;;
51190;SDS011;37253;48.736;9.294;2023-08-24T11:18:42;3.70;;;3.40;;
51190;SDS011;37253;48.736;9.294;2023-08-24T11:20:43;4.60;;;3.80;;
51190;SDS011;37253;48.736;9.294;2023-08-24T11:22:44;4.45;;;3.28;;
51190;SDS011;37253;48.736;9.294;2023-08-24T11:24:45;4.35;;;3.60;;
51190;SDS011;37253;48.736;9.294;2023-08-24T11:26:46;4.68;;;3.95;;
51190;SDS011;37253;48.736;9.294;2023-08-24T11:28:47;7.60;;;4.00;;
51190;SDS011;37253;48.736;9.294;2023-08-24T11:30:53;3.75;;;3.45;;
51190;SDS011;37253;48.736;9.294;2023-08-24T11:32:54;6.32;;;3.63;;
51190;SDS011;37253;48.736;9.294;2023-08-24T11:34:54;5.30;;;4.03;;
51190;SDS011;37253;48.736;9.294;2023-08-24T11:36:55;4.97;;;3.60;;
51190;SDS011;37253;48.736;9.294;2023-08-24T11:38:58;4.82;;;3.60;;
51190;SDS011;37253;48.736;9.294;2023-08-24T11:40:59;3.78;;;3.42;;
51190;SDS011;37253;48.736;9.294;2023-08-24T11:42:59;3.90;;;3.60;;
51190;SDS011;37253;48.736;9.294;2023-08-24T11:45:00;3.83;;;3.53;;
51190;SDS011;37253;48.736;9.294;2023-08-24T11:47:00;5.93;;;3.42;;
51190;SDS011;37253;48.736;9.294;2023-08-24T11:49:00;4.82;;;3.40;;
51190;SDS011;37253;48.736;9.294;2023-08-24T11:51:01;5.45;;;3.67;;
51190;SDS011;37253;48.736;9.294;2023-08-24T11:53:01;4.13;;;3.70;;
51190;SDS011;37253;48.736;9.294;2023-08-24T11:55:02;3.90;;;3.60;;
51190;SDS011;37253;48.736;9.294;2023-08-24T11:57:07;4.05;;;3.65;;
51190;SDS011;37253;48.736;9.294;2023-08-24T11:59:14;4.32;;;3.95;;
51190;SDS011;37253;48.736;9.294;2023-08-24T12:01:15;4.97;;;4.10;;
51190;SDS011;37253;48.736;9.294;2023-08-24T12:03:15;5.93;;;3.75;;
51190;SDS011;37253;48.736;9.294;2023-08-24T12:05:19;3.97;;;3.67;;
51190;SDS011;37253;48.736;9.294;2023-08-24T12:07:23;3.92;;;3.45;;
51190;SDS011;37253;48.736;9.294;2023-08-24T12:09:28;4.43;;;4.03;;
51190;SDS011;37253;48.736;9.294;2023-08-24T12:11:29;4.05;;;3.65;;
51190;SDS011;37253;48.736;9.294;2023-08-24T12:13:35;4.32;;;3.92;;
51190;SDS011;37253;48.736;9.294;2023-08-24T12:15:36;3.92;;;3.53;;
51190;SDS011;37253;48.736;9.294;2023-08-24T12:17:43;4.40;;;4.00;;
51190;SDS011;37253;48.736;9.294;2023-08-24T12:19:44;3.90;;;3.50;;
51190;SDS011;37253;48.736;9.294;2023-08-24T12:21:45;6.47;;;4.10;;
51190;SDS011;37253;48.736;9.294;2023-08-24T12:26:16;4.47;;;3.60;;
51190;SDS011;37253;48.736;9.294;2023-08-24T12:28:17;4.13;;;3.72;;
51190;SDS011;37253;48.736;9.294;2023-08-24T12:30:18;6.60;;;3.58;;
51190;SDS011;37253;48.736;9.294;2023-08-24T12:32:20;4.00;;;3.53;;